Terminal Aerodrome Forecast
Issued by NWS

Home | Current Version | Previous Version | Text Only | Print | Product List | Glossary On
Versions: 1 2 3 4 5 6 7 8 9 10 11 12 13 14 15 16 17 18 19 20
966
FTUS44 KCRP 260530
TAFALI
TAF
KALI 260530Z 2606/2706 08004KT P6SM FEW025
      TEMPO 2608/2610 5SM BR BKN025
     FM261000 09005KT 5SM BR OVC025
     FM261500 14010G15KT P6SM BKN030 BKN250
     FM261900 16015G20KT P6SM VCSH SCT035 BKN250
     FM262300 17011KT P6SM OVC050=

USA.gov is the U.S. government's official web portal to all federal, state and local government web resources and services.